Time;durP1;ratioP1;P1;durP2;ratioP2;P2;SDS_P1;SDS_P2;PMS_P1;PMS_P2;Temp;Humidity;BMP_temperature;BMP_pressure;BME280_temperature;BME280_humidity;BME280_pressure;Samples;Min_cycle;Max_cycle;Signal;HPM_P1;HPM_P2
2024/01/21 00:00:16;;;;;;;;;37.33;32.33;;;;;0.70;68.73;102308.97;2020315;28;3602373;-72
2024/01/21 00:01:31;;;;;;;;;40.20;35.20;;;;;0.70;68.33;102311.53;2019738;28;3608540;-72
2024/01/21 00:02:43;;;;;;;;;41.33;35.00;;;;;0.71;67.81;102312.44;1975015;28;3579359;-72
2024/01/21 00:03:55;;;;;;;;;35.60;30.80;;;;;0.71;68.03;102305.56;2028272;28;3585612;-72
2024/01/21 00:05:07;;;;;;;;;36.33;28.33;;;;;0.72;68.34;102311.59;2005608;28;3593503;-72
2024/01/21 00:06:19;;;;;;;;;35.00;30.67;;;;;0.70;68.52;102308.06;1984598;28;3584730;-72
2024/01/21 00:07:30;;;;;;;;;36.80;28.00;;;;;0.72;67.92;102303.81;2009710;28;2877331;-72
2024/01/21 00:08:42;;;;;;;;;41.00;31.67;;;;;0.71;68.02;102300.38;2024486;28;3606489;-72
2024/01/21 00:09:54;;;;;;;;;33.00;29.67;;;;;0.71;68.92;102299.50;1999645;28;3581497;-71
2024/01/21 00:11:05;;;;;;;;;40.00;34.40;;;;;0.71;68.87;102291.72;2018909;28;2864808;-72
2024/01/21 00:12:16;;;;;;;;;27.33;25.67;;;;;0.72;69.12;102296.94;2031311;28;3566888;-72
2024/01/21 00:13:29;;;;;;;;;36.71;31.57;;;;;0.73;68.34;102284.88;2026381;28;3596143;-72
2024/01/21 00:14:41;;;;;;;;;38.67;30.00;;;;;0.73;68.07;102282.28;1993239;28;3594426;-71
2024/01/21 00:15:53;;;;;;;;;30.40;27.80;;;;;0.72;68.31;102276.22;2027984;28;3583538;-72
2024/01/21 00:17:07;;;;;;;;;34.00;27.14;;;;;0.73;68.01;102262.47;2025095;28;3594052;-72
2024/01/21 00:18:18;;;;;;;;;29.00;28.00;;;;;0.73;67.74;102261.59;1985829;28;2843089;-72
2024/01/21 00:19:29;;;;;;;;;37.67;33.67;;;;;0.74;67.86;102259.03;2005340;28;3604456;-72
2024/01/21 00:20:41;;;;;;;;;37.40;32.60;;;;;0.73;67.85;102257.31;2010233;28;2861727;-72
2024/01/21 00:21:52;;;;;;;;;28.33;26.33;;;;;0.75;67.71;102249.56;2011350;28;3571057;-72
2024/01/21 00:23:04;;;;;;;;;30.33;26.67;;;;;0.73;68.07;102236.59;2024521;28;3587744;-72
2024/01/21 00:24:16;;;;;;;;;35.00;30.00;;;;;0.75;68.11;102244.41;2025036;28;3580436;-72
2024/01/21 00:25:28;;;;;;;;;37.33;25.00;;;;;0.73;68.51;102236.59;2023889;28;3607897;-72
2024/01/21 00:26:40;;;;;;;;;30.67;25.67;;;;;0.73;67.63;102236.59;2022513;28;3574741;-71
2024/01/21 00:27:52;;;;;;;;;32.00;26.67;;;;;0.75;67.76;102237.50;2024520;28;3573160;-72
2024/01/21 00:29:04;;;;;;;;;34.00;30.00;;;;;0.75;67.80;102241.81;2011605;28;3579410;-71
2024/01/21 00:30:16;;;;;;;;;32.20;30.00;;;;;0.76;68.07;102243.56;2017707;28;3583560;-71
2024/01/21 00:31:28;;;;;;;;;29.67;26.67;;;;;0.76;67.17;102241.00;2025045;28;3579761;-72
2024/01/21 00:32:39;;;;;;;;;35.33;25.67;;;;;0.76;67.80;102249.63;2017600;28;3596089;-72
2024/01/21 00:33:51;;;;;;;;;28.33;21.00;;;;;0.76;67.75;102241.88;2023087;28;3580480;-71
2024/01/21 00:35:04;;;;;;;;;31.00;25.00;;;;;0.74;67.41;102243.50;2024503;28;2825688;-72
2024/01/21 00:36:15;;;;;;;;;27.67;25.00;;;;;0.75;67.54;102236.63;2008283;28;3567937;-71
2024/01/21 00:37:27;;;;;;;;;34.33;29.00;;;;;0.75;67.72;102246.97;2024702;28;3586690;-72
2024/01/21 00:38:41;;;;;;;;;34.00;28.00;;;;;0.74;67.02;102256.44;2024476;28;3579403;-71
2024/01/21 00:39:53;;;;;;;;;35.67;27.00;;;;;0.75;67.44;102268.56;2007649;28;3586701;-71
2024/01/21 00:41:05;;;;;;;;;34.33;24.67;;;;;0.76;68.04;102285.00;2022632;28;3591898;-72
2024/01/21 00:42:16;;;;;;;;;30.33;27.67;;;;;0.77;67.04;102289.31;2017396;28;3578461;-72
2024/01/21 00:43:28;;;;;;;;;30.00;23.67;;;;;0.77;67.21;102289.31;2023196;28;3579413;-72
2024/01/21 00:44:40;;;;;;;;;25.00;23.00;;;;;0.78;67.58;102291.09;2022487;28;2833746;-71
2024/01/21 00:45:53;;;;;;;;;34.67;26.00;;;;;0.80;67.34;102286.84;2004922;28;3587747;-72
2024/01/21 00:47:04;;;;;;;;;32.33;30.67;;;;;0.81;67.20;102278.25;2007797;28;3589822;-72
2024/01/21 00:48:16;;;;;;;;;33.00;29.67;;;;;0.82;67.48;102273.94;2023510;28;3565881;-72
2024/01/21 00:49:29;;;;;;;;;38.00;31.00;;;;;0.84;67.87;102274.91;2024206;28;3595039;-72
2024/01/21 00:50:42;;;;;;;;;28.00;25.60;;;;;0.85;67.12;102274.94;2025813;28;2845021;-72
2024/01/21 00:51:54;;;;;;;;;35.67;29.00;;;;;0.85;67.07;102267.16;2001719;28;3593997;-72
2024/01/21 00:53:06;;;;;;;;;29.33;27.67;;;;;0.86;67.34;102268.94;2019642;28;3576267;-71
2024/01/21 00:54:18;;;;;;;;;30.67;29.00;;;;;0.88;67.41;102274.16;2017263;28;3589884;-71
2024/01/21 00:55:29;;;;;;;;;33.33;26.00;;;;;0.89;66.93;102262.94;2023796;28;3577784;-71
2024/01/21 00:56:41;;;;;;;;;35.33;28.33;;;;;0.89;67.54;102252.59;2023402;28;3594008;-71
2024/01/21 00:57:53;;;;;;;;;33.00;30.33;;;;;0.88;67.46;102254.34;2022946;28;3585645;-72
2024/01/21 00:59:05;;;;;;;;;32.67;29.00;;;;;0.89;67.17;102258.66;2024304;28;3583565;-72
2024/01/21 01:00:18;;;;;;;;;24.33;23.00;;;;;0.89;66.63;102263.84;2023249;28;3578384;-72
2024/01/21 01:01:30;;;;;;;;;37.33;31.67;;;;;0.89;67.13;102256.06;2007677;28;3597129;-72
2024/01/21 01:02:42;;;;;;;;;33.33;28.33;;;;;0.90;66.92;102254.38;2017259;28;3592986;-71
2024/01/21 01:03:55;;;;;;;;;33.17;30.17;;;;;0.90;67.50;102264.72;2034540;28;2849172;-72
2024/01/21 01:05:07;;;;;;;;;36.00;31.33;;;;;0.91;67.02;102270.78;2001231;28;3580967;-72
2024/01/21 01:06:19;;;;;;;;;29.00;29.00;;;;;0.90;66.85;102269.91;2010261;28;3595087;-72
2024/01/21 01:07:30;;;;;;;;;30.67;28.00;;;;;0.91;66.43;102268.19;2023169;28;3583588;-71
2024/01/21 01:08:42;;;;;;;;;36.33;29.33;;;;;0.90;67.10;102277.66;2024990;28;3582535;-71
2024/01/21 01:09:54;;;;;;;;;33.67;28.67;;;;;0.89;66.80;102266.44;2024851;28;3581478;-71
2024/01/21 01:11:06;;;;;;;;;36.33;28.67;;;;;0.90;66.32;102264.72;2024832;28;3577308;-72
2024/01/21 01:12:18;;;;;;;;;35.60;30.80;;;;;0.89;66.70;102266.44;2015698;28;3591881;-71
2024/01/21 01:13:30;;;;;;;;;28.80;24.00;;;;;0.90;66.96;102269.91;2006218;28;1840978;-71
2024/01/21 01:14:41;;;;;;;;;35.00;29.33;;;;;0.89;66.96;102266.44;1975433;28;3594044;-71
2024/01/21 01:15:53;;;;;;;;;35.00;27.33;;;;;0.89;66.84;102278.50;1998483;28;3582518;-71
2024/01/21 01:17:06;;;;;;;;;29.00;22.67;;;;;0.88;66.96;102262.09;2015250;28;3577340;-71
2024/01/21 01:18:18;;;;;;;;;34.33;28.00;;;;;0.89;66.94;102270.72;2007407;28;3589819;-71
2024/01/21 01:19:29;;;;;;;;;25.67;23.00;;;;;0.87;66.21;102270.69;2022200;28;2833640;-71
2024/01/21 01:20:41;;;;;;;;;27.00;21.33;;;;;0.87;67.43;102265.50;2006790;28;3567952;-71
2024/01/21 01:21:53;;;;;;;;;30.67;28.33;;;;;0.86;66.45;102271.53;2022894;28;3587742;-71
2024/01/21 01:23:05;;;;;;;;;31.33;27.67;;;;;0.86;66.78;102268.06;2023946;28;3599197;-71
2024/01/21 01:24:17;;;;;;;;;26.00;22.00;;;;;0.85;66.88;102269.75;2013089;28;3567976;-71
2024/01/21 01:25:28;;;;;;;;;35.00;29.67;;;;;0.86;66.73;102273.22;2018224;28;3591925;-71
2024/01/21 01:26:41;;;;;;;;;33.00;29.86;;;;;0.85;66.94;102266.28;2021398;28;3586041;-71
2024/01/21 01:27:54;;;;;;;;;31.14;28.14;;;;;0.84;67.15;102262.81;2000894;28;3570410;-71
2024/01/21 01:29:06;;;;;;;;;34.00;30.00;;;;;0.85;66.38;102266.28;1996735;28;3588793;-71
2024/01/21 01:30:18;;;;;;;;;32.00;26.00;;;;;0.85;66.36;102267.16;2022522;28;3596089;-71
2024/01/21 01:31:30;;;;;;;;;34.33;30.67;;;;;0.84;66.14;102265.41;2014402;28;3593993;-71
2024/01/21 01:32:42;;;;;;;;;35.33;30.67;;;;;0.85;66.24;102264.59;2012078;28;3581490;-71
2024/01/21 01:33:54;;;;;;;;;34.33;30.67;;;;;0.84;66.26;102257.63;2023613;28;3584969;-71
2024/01/21 01:35:08;;;;;;;;;33.57;29.14;;;;;0.83;66.30;102263.66;2024769;28;3574694;-71
2024/01/21 01:36:18;;;;;;;;;25.00;18.00;;;;;0.83;65.92;102266.25;1982300;28;2834767;-71
2024/01/21 01:37:31;;;;;;;;;37.33;31.00;;;;;0.83;65.98;102267.94;1997965;28;3600210;-71
2024/01/21 01:38:42;;;;;;;;;35.67;30.67;;;;;0.82;66.47;102268.75;1982559;28;3594025;-71
2024/01/21 01:39:54;;;;;;;;;35.67;29.67;;;;;0.80;66.20;102268.72;2015791;28;3601316;-71
2024/01/21 01:41:06;;;;;;;;;34.00;28.33;;;;;0.81;66.43;102277.38;1999702;28;3595066;-71
2024/01/21 01:42:18;;;;;;;;;29.00;25.67;;;;;0.81;66.27;102274.78;2023697;28;3584651;-71
2024/01/21 01:43:30;;;;;;;;;29.33;26.67;;;;;0.79;65.95;102274.75;2023309;28;3581502;-71
2024/01/21 01:44:42;;;;;;;;;34.00;31.00;;;;;0.79;66.55;102272.16;2014221;28;3577324;-71
2024/01/21 01:45:54;;;;;;;;;31.00;29.67;;;;;0.77;66.64;102269.50;2014097;28;3571105;-71
2024/01/21 01:47:08;;;;;;;;;36.67;28.67;;;;;0.77;66.58;102268.63;2008516;28;3605432;-71
2024/01/21 01:48:22;;;;;;;;;32.67;27.00;;;;;0.76;66.34;102274.63;1984064;28;3600255;-71
2024/01/21 01:49:35;;;;;;;;;30.00;28.33;;;;;0.74;66.78;102265.94;1983658;28;3582535;-71
2024/01/21 01:50:47;;;;;;;;;30.67;25.00;;;;;0.73;67.08;102253.81;2014313;28;3584988;-71
2024/01/21 01:51:59;;;;;;;;;30.00;28.67;;;;;0.73;66.84;102266.78;2018641;28;3578496;-71
2024/01/21 01:53:11;;;;;;;;;34.67;30.67;;;;;0.73;66.85;102262.47;2016530;28;3583606;-71
2024/01/21 01:54:24;;;;;;;;;34.33;27.33;;;;;0.73;66.71;102274.53;2021292;28;3575256;-71
2024/01/21 01:55:36;;;;;;;;;32.00;27.33;;;;;0.73;66.59;102275.41;2007908;28;3585652;-71
2024/01/21 01:56:48;;;;;;;;;30.33;27.00;;;;;0.72;65.98;102273.66;2020961;28;3583570;-71
2024/01/21 01:58:01;;;;;;;;;34.00;28.67;;;;;0.72;66.47;102277.94;2007155;28;3588813;-71
2024/01/21 01:59:12;;;;;;;;;29.67;26.67;;;;;0.72;67.25;102265.00;1977511;28;3578354;-71
2024/01/21 02:00:24;;;;;;;;;31.00;30.00;;;;;0.73;66.07;102277.13;2006672;28;3580447;-71
2024/01/21 02:01:39;;;;;;;;;33.00;30.33;;;;;0.73;66.55;102274.53;2024017;28;3582519;-71
2024/01/21 02:02:52;;;;;;;;;34.67;29.00;;;;;0.74;66.40;102271.97;2007807;28;3577338;-71
2024/01/21 02:04:06;;;;;;;;;31.67;29.00;;;;;0.75;66.79;102272.88;2007697;28;3592971;-71
2024/01/21 02:05:17;;;;;;;;;45.33;34.67;;;;;0.76;66.58;102275.53;2015266;28;3615856;-71
2024/01/21 02:06:29;;;;;;;;;31.00;26.33;;;;;0.76;66.45;102280.72;2019029;28;3568997;-71
2024/01/21 02:07:41;;;;;;;;;31.33;25.67;;;;;0.77;67.36;102269.50;2021193;28;3598271;-71
2024/01/21 02:08:52;;;;;;;;;26.25;23.00;;;;;0.78;66.58;102275.56;2031988;28;1839908;-71
2024/01/21 02:10:04;;;;;;;;;32.67;25.67;;;;;0.79;66.45;102287.69;1984857;28;3586726;-71
2024/01/21 02:11:15;;;;;;;;;32.67;30.67;;;;;0.80;66.59;102286.84;2007676;28;3588781;-71
2024/01/21 02:12:28;;;;;;;;;30.33;23.33;;;;;0.81;66.89;102291.22;2017370;28;3578421;-71
2024/01/21 02:13:39;;;;;;;;;29.33;25.33;;;;;0.83;66.68;102297.31;2006211;28;3593990;-71
2024/01/21 02:14:51;;;;;;;;;29.33;28.33;;;;;0.83;66.32;102297.31;2024036;28;3585692;-71
2024/01/21 02:16:04;;;;;;;;;29.71;25.43;;;;;0.84;66.45;102290.44;2023550;28;3581462;-71
2024/01/21 02:17:16;;;;;;;;;34.00;29.67;;;;;0.86;65.88;102291.34;1989481;28;3601284;-71
2024/01/21 02:18:28;;;;;;;;;39.00;30.00;;;;;0.85;66.62;102292.19;2030542;28;3606580;-71
2024/01/21 02:19:40;;;;;;;;;34.00;30.00;;;;;0.86;66.82;102288.78;1988931;28;3577326;-71
2024/01/21 02:20:52;;;;;;;;;34.00;26.00;;;;;0.87;67.26;102285.34;2023321;28;3597130;-71
2024/01/21 02:22:04;;;;;;;;;31.80;29.00;;;;;0.87;66.26;102291.41;2028057;28;3574191;-71
2024/01/21 02:23:16;;;;;;;;;27.20;22.80;;;;;0.88;66.49;102290.59;2042579;28;1846139;-71
2024/01/21 02:24:29;;;;;;;;;38.50;29.00;;;;;0.88;66.94;102281.94;1990386;28;2856523;-71
2024/01/21 02:25:41;;;;;;;;;27.00;25.67;;;;;0.89;66.97;102289.72;1982740;28;3585671;-71
2024/01/21 02:26:52;;;;;;;;;28.33;25.00;;;;;0.89;66.28;102289.72;2022546;28;3581500;-71
2024/01/21 02:28:05;;;;;;;;;38.00;31.00;;;;;0.90;66.83;102295.81;2024317;28;3592477;-71
2024/01/21 02:29:17;;;;;;;;;36.67;30.00;;;;;0.90;66.56;102290.63;1991787;28;3594000;-71
2024/01/21 02:30:30;;;;;;;;;36.86;32.71;;;;;0.88;66.84;102288.00;2020099;28;3591902;-71
2024/01/21 02:31:43;;;;;;;;;37.29;31.57;;;;;0.91;66.65;102291.50;1999703;28;3590911;-71
2024/01/21 02:32:54;;;;;;;;;20.25;18.50;;;;;0.89;65.90;102289.72;2009725;28;1846201;-71
2024/01/21 02:34:05;;;;;;;;;28.00;22.50;;;;;0.90;66.15;102295.81;1984072;28;2829440;-71
2024/01/21 02:35:17;;;;;;;;;30.33;27.67;;;;;0.88;66.04;102295.75;2002481;28;3589084;-71
2024/01/21 02:36:28;;;;;;;;;42.33;32.33;;;;;0.89;67.10;102287.16;2032679;28;3608591;-71
2024/01/21 02:37:41;;;;;;;;;31.00;29.67;;;;;0.89;66.44;102289.72;2027648;28;3579409;-71
2024/01/21 02:38:52;;;;;;;;;32.67;27.00;;;;;0.90;66.40;102293.22;2010738;28;3592298;-71
2024/01/21 02:40:05;;;;;;;;;43.00;33.33;;;;;0.91;66.50;102289.81;2024045;28;3611685;-71
2024/01/21 02:41:16;;;;;;;;;39.00;26.67;;;;;0.91;66.44;102289.81;2006481;28;3602337;-71
2024/01/21 02:42:28;;;;;;;;;33.33;31.33;;;;;0.91;65.98;102291.50;2021778;28;3579395;-71
2024/01/21 02:43:40;;;;;;;;;36.00;26.00;;;;;0.90;66.65;102295.81;2016594;28;3602326;-71
2024/01/21 02:44:54;;;;;;;;;32.33;28.00;;;;;0.91;66.37;102294.09;2021073;28;3588778;-71
2024/01/21 02:46:05;;;;;;;;;28.33;24.00;;;;;0.91;66.08;102297.56;2003833;28;3579389;-71
2024/01/21 02:47:17;;;;;;;;;33.67;30.33;;;;;0.92;66.18;102293.25;2014654;28;3596068;-71
2024/01/21 02:48:29;;;;;;;;;30.33;28.33;;;;;0.92;66.31;102298.44;2020331;28;3586717;-71
2024/01/21 02:49:41;;;;;;;;;32.67;29.67;;;;;0.91;66.01;102292.38;2023576;28;3579769;-71
2024/01/21 02:50:53;;;;;;;;;34.33;31.67;;;;;0.91;66.20;102296.69;2023258;28;3588809;-71
2024/01/21 02:52:05;;;;;;;;;35.00;31.67;;;;;0.92;66.48;102298.44;2023499;28;3584614;-71
2024/01/21 02:53:17;;;;;;;;;35.67;30.00;;;;;0.92;66.20;102309.66;2021061;28;3585685;-71
2024/01/21 02:54:29;;;;;;;;;34.33;25.00;;;;;0.91;66.26;102309.63;2023499;28;3597130;-71
2024/01/21 02:55:41;;;;;;;;;32.33;30.00;;;;;0.92;65.83;102303.59;2016986;28;3583950;-71
2024/01/21 02:56:53;;;;;;;;;37.67;36.00;;;;;0.92;66.45;102298.44;2018904;28;3584615;-71
2024/01/21 02:58:05;;;;;;;;;29.80;26.60;;;;;0.94;67.12;102301.97;2025794;28;3584592;-71
2024/01/21 02:59:17;;;;;;;;;35.86;27.29;;;;;0.93;66.51;102295.91;2025023;28;3629448;-71
2024/01/21 03:00:29;;;;;;;;;40.67;30.33;;;;;0.93;66.44;102287.25;1993322;28;3602318;-71
2024/01/21 03:01:42;;;;;;;;;36.71;29.57;;;;;0.92;66.24;102288.06;2022816;28;3595046;-71
2024/01/21 03:02:54;;;;;;;;;32.67;28.33;;;;;0.92;65.78;102288.06;2003735;28;3586713;-71
2024/01/21 03:04:10;;;;;;;;;32.00;28.00;;;;;0.93;66.58;102287.25;2020175;28;3583558;-71
2024/01/21 03:05:21;;;;;;;;;29.00;26.00;;;;;0.92;65.98;102283.78;2007447;28;3584622;-71
2024/01/21 03:06:33;;;;;;;;;32.33;29.67;;;;;0.93;66.88;102276.91;2024093;28;3581490;-71
2024/01/21 03:07:45;;;;;;;;;33.67;29.00;;;;;0.94;67.15;102284.69;2025120;28;3591925;-71
2024/01/21 03:08:57;;;;;;;;;35.33;31.33;;;;;0.95;66.32;102281.28;2015572;28;3601265;-71
2024/01/21 03:10:09;;;;;;;;;37.00;30.33;;;;;0.94;65.93;102276.94;2001623;28;3594572;-71
2024/01/21 03:11:20;;;;;;;;;35.67;30.00;;;;;0.95;66.44;102272.63;2021130;28;3586717;-71
2024/01/21 03:12:35;;;;;;;;;36.33;27.00;;;;;0.96;66.35;102272.72;2018072;28;3604425;-71
2024/01/21 03:13:46;;;;;;;;;39.67;29.33;;;;;0.97;65.76;102268.38;2008307;28;3618983;-71
2024/01/21 03:14:58;;;;;;;;;32.00;30.00;;;;;0.96;66.53;102269.22;2001233;28;3589802;-71
2024/01/21 03:16:11;;;;;;;;;25.00;23.50;;;;;0.95;66.38;102268.34;2025333;28;2839844;-71
2024/01/21 03:17:22;;;;;;;;;32.33;24.67;;;;;0.96;66.37;102256.28;1984379;28;3589883;-71
2024/01/21 03:18:38;;;;;;;;;28.33;25.00;;;;;0.96;66.29;102254.59;2023433;27;3586781;-71
2024/01/21 03:19:50;;;;;;;;;34.00;29.33;;;;;0.95;66.06;102255.41;2006853;28;3597168;-71
2024/01/21 03:21:01;;;;;;;;;32.00;29.00;;;;;0.96;66.11;102258.88;2019776;28;3585672;-71
2024/01/21 03:22:13;;;;;;;;;31.00;28.67;;;;;0.97;66.22;102252.84;2012391;28;3583581;-71
2024/01/21 03:23:25;;;;;;;;;25.00;25.00;;;;;0.97;66.37;102255.44;2024912;28;3575273;-71
2024/01/21 03:24:37;;;;;;;;;31.33;26.00;;;;;0.98;66.57;102252.03;2024208;28;3591890;-71
2024/01/21 03:25:50;;;;;;;;;29.00;27.43;;;;;0.99;66.25;102258.94;2023544;28;3576768;-71
2024/01/21 03:27:02;;;;;;;;;37.33;30.67;;;;;0.99;66.18;102253.78;1999857;28;3610659;-71
2024/01/21 03:28:14;;;;;;;;;31.67;27.00;;;;;0.99;66.71;102254.66;1994286;28;3578394;-71
2024/01/21 03:29:26;;;;;;;;;31.00;25.00;;;;;0.99;66.66;102256.38;2020886;28;3592939;-71
2024/01/21 03:30:39;;;;;;;;;34.00;26.00;;;;;0.99;66.65;102253.78;2022762;28;3597122;-71
2024/01/21 03:31:50;;;;;;;;;31.33;30.33;;;;;1.00;66.89;102256.44;1983671;28;3579378;-71
2024/01/21 03:33:02;;;;;;;;;31.67;28.00;;;;;1.00;66.44;102253.84;2025748;28;3594006;-71
2024/01/21 03:34:14;;;;;;;;;37.00;30.40;;;;;1.03;66.73;102254.75;2031687;28;3601248;-71
2024/01/21 03:35:26;;;;;;;;;31.33;26.67;;;;;1.03;66.35;102266.00;2008169;27;3601307;-71
2024/01/21 03:36:39;;;;;;;;;35.67;34.33;;;;;1.04;66.37;102267.75;2010083;28;3590842;-71
2024/01/21 03:37:52;;;;;;;;;29.67;24.33;;;;;1.06;66.31;102275.59;1984363;28;3584313;-71
2024/01/21 03:39:05;;;;;;;;;27.20;24.20;;;;;1.06;66.99;102273.84;2019796;28;2826360;-71
2024/01/21 03:40:17;;;;;;;;;33.33;29.67;;;;;1.07;66.11;102266.97;1992200;28;3585732;-71
2024/01/21 03:41:28;;;;;;;;;33.67;25.00;;;;;1.09;66.08;102266.19;2011715;28;3599189;-71
2024/01/21 03:42:43;;;;;;;;;32.00;30.33;;;;;1.10;66.59;102274.84;2025168;28;3599194;-71
2024/01/21 03:43:54;;;;;;;;;29.67;27.00;;;;;1.11;65.61;102282.66;1984944;28;3578368;-71
2024/01/21 03:45:06;;;;;;;;;31.67;26.33;;;;;1.13;66.01;102285.31;2022468;28;3599201;-71
2024/01/21 03:46:18;;;;;;;;;27.67;27.67;;;;;1.15;66.81;102295.72;2010264;28;3580429;-71
2024/01/21 03:47:30;;;;;;;;;32.67;27.00;;;;;1.16;66.65;102287.13;2003686;28;3584606;-71
2024/01/21 03:48:42;;;;;;;;;29.67;28.67;;;;;1.17;66.57;102294.94;2023988;28;3576322;-71
2024/01/21 03:49:53;;;;;;;;;22.50;20.00;;;;;1.18;66.43;102299.28;2025275;28;2814861;-71
2024/01/21 03:51:05;;;;;;;;;30.67;29.67;;;;;1.19;65.89;102295.84;2010339;28;3582531;-71
2024/01/21 03:52:17;;;;;;;;;25.00;22.33;;;;;1.20;65.25;102294.16;2006700;28;3579411;-71
2024/01/21 03:53:28;;;;;;;;;29.00;26.00;;;;;1.21;65.66;102293.31;2009084;28;3581501;-71
2024/01/21 03:54:40;;;;;;;;;30.33;26.00;;;;;1.21;65.64;102289.00;2025154;28;3591894;-71
2024/01/21 03:55:52;;;;;;;;;28.00;25.00;;;;;1.23;65.81;102283.88;2025184;28;3583577;-71
2024/01/21 03:57:04;;;;;;;;;32.00;28.00;;;;;1.25;65.66;102291.69;2021754;28;3600255;-71
2024/01/21 03:58:16;;;;;;;;;30.33;26.67;;;;;1.26;65.85;102283.09;2025277;28;3582526;-71
2024/01/21 03:59:28;;;;;;;;;30.00;25.33;;;;;1.26;65.63;102283.97;2022804;28;3593971;-71
2024/01/21 04:00:39;;;;;;;;;26.00;26.00;;;;;1.27;65.55;102280.56;2033361;28;1846134;-71
2024/01/21 04:01:50;;;;;;;;;33.33;27.33;;;;;1.29;65.86;102278.00;1984067;28;3598145;-71
2024/01/21 04:03:02;;;;;;;;;38.67;31.67;;;;;1.29;65.93;102278.00;2023222;28;3592960;-71
2024/01/21 04:04:14;;;;;;;;;34.33;26.67;;;;;1.29;65.46;102278.88;2022460;28;3592976;-71
2024/01/21 04:05:26;;;;;;;;;27.33;22.00;;;;;1.32;65.53;102285.88;2021771;28;2833716;-71
2024/01/21 04:06:42;;;;;;;;;28.33;23.67;;;;;1.33;65.59;102285.06;2006923;28;3570043;-71
2024/01/21 04:07:55;;;;;;;;;26.00;20.00;;;;;1.33;65.21;102285.91;2021465;28;2834632;-71
2024/01/21 04:09:07;;;;;;;;;26.00;24.00;;;;;1.36;65.20;102285.13;2002523;28;3580488;-71
2024/01/21 04:10:18;;;;;;;;;31.67;24.67;;;;;1.37;65.92;102286.91;2011458;28;3589818;-71
2024/01/21 04:11:30;;;;;;;;;33.00;26.00;;;;;1.37;65.57;102280.81;2023859;28;3591932;-71
2024/01/21 04:12:42;;;;;;;;;24.67;21.00;;;;;1.38;65.65;102288.66;2017024;28;3577343;-71
2024/01/21 04:13:54;;;;;;;;;24.00;20.67;;;;;1.38;65.18;102286.06;2017415;28;3571102;-71
2024/01/21 04:15:06;;;;;;;;;25.00;23.00;;;;;1.40;65.34;102278.34;2023011;28;3575682;-71
2024/01/21 04:16:18;;;;;;;;;29.00;25.00;;;;;1.41;64.76;102277.50;2017452;28;3591879;-71
2024/01/21 04:17:30;;;;;;;;;32.33;29.67;;;;;1.42;65.45;102284.44;2022290;28;3597099;-71
2024/01/21 04:18:42;;;;;;;;;35.67;25.33;;;;;1.43;65.19;102287.06;2024362;28;3604428;-71
2024/01/21 04:19:53;;;;;;;;;28.00;24.33;;;;;1.44;65.10;102282.78;2023714;28;3596119;-71
2024/01/21 04:21:05;;;;;;;;;26.33;26.00;;;;;1.45;65.29;102277.66;2024203;28;3575267;-71
2024/01/21 04:22:18;;;;;;;;;28.00;25.67;;;;;1.45;64.30;102275.06;2014416;28;3588770;-71
2024/01/21 04:23:30;;;;;;;;;27.33;25.00;;;;;1.47;64.57;102272.50;2008116;28;3578357;-71
2024/01/21 04:24:42;;;;;;;;;33.00;28.67;;;;;1.49;64.78;102267.34;2023649;28;3592963;-71
2024/01/21 04:25:53;;;;;;;;;24.00;23.50;;;;;1.49;64.95;102263.06;2032955;28;1837816;-71
2024/01/21 04:27:04;;;;;;;;;27.00;26.00;;;;;1.50;64.78;102267.44;1984615;28;3592264;-71
2024/01/21 04:28:16;;;;;;;;;22.00;20.60;;;;;1.52;65.20;102264.88;2030755;28;1841952;-71
2024/01/21 04:29:28;;;;;;;;;30.67;28.00;;;;;1.52;64.29;102263.16;2006528;28;3601288;-71
2024/01/21 04:30:39;;;;;;;;;23.50;21.00;;;;;1.54;64.07;102265.78;2018639;28;2842392;-71
2024/01/21 04:31:51;;;;;;;;;29.33;26.00;;;;;1.55;64.82;102263.25;1994913;28;3590837;-71
2024/01/21 04:33:03;;;;;;;;;25.67;22.00;;;;;1.56;64.05;102262.41;2024561;28;3577328;-71
2024/01/21 04:34:14;;;;;;;;;26.00;23.50;;;;;1.57;64.10;102261.59;2020524;28;2834656;-71
2024/01/21 04:35:26;;;;;;;;;28.60;21.40;;;;;1.58;64.32;102254.69;2009221;28;1838860;-71
2024/01/21 04:36:36;;;;;;;;;22.00;15.50;;;;;1.60;64.16;102257.31;1983105;28;2824653;-71
2024/01/21 04:37:48;;;;;;;;;28.00;21.50;;;;;1.60;64.36;102258.22;2009939;28;1843135;-71
2024/01/21 04:39:00;;;;;;;;;37.00;29.67;;;;;1.61;64.12;102256.47;1979382;28;3597101;-71
2024/01/21 04:40:12;;;;;;;;;31.00;21.67;;;;;1.61;64.10;102244.41;2018595;28;3579422;-71
2024/01/21 04:41:23;;;;;;;;;30.00;24.33;;;;;1.63;63.65;102253.09;2015047;28;3572600;-71
2024/01/21 04:42:35;;;;;;;;;26.33;24.33;;;;;1.63;64.44;102237.53;2019822;28;3598191;-71
2024/01/21 04:43:47;;;;;;;;;28.00;22.00;;;;;1.65;63.83;102240.19;2025000;28;3580448;-71
2024/01/21 04:44:59;;;;;;;;;24.67;22.00;;;;;1.67;64.08;102233.34;2019408;28;3575224;-71
2024/01/21 04:46:11;;;;;;;;;22.67;21.00;;;;;1.67;63.92;102233.34;2032373;28;2831017;-71
2024/01/21 04:47:23;;;;;;;;;25.33;21.67;;;;;1.68;63.62;102227.28;2014421;28;3576292;-71
2024/01/21 04:48:35;;;;;;;;;28.00;21.40;;;;;1.67;63.23;102223.84;2034792;28;1840915;-71
2024/01/21 04:49:46;;;;;;;;;25.50;20.50;;;;;1.68;63.72;102220.41;1985476;28;2838803;-71
2024/01/21 04:50:58;;;;;;;;;25.33;22.00;;;;;1.70;63.29;102204.91;2008947;28;3578324;-71
2024/01/21 04:52:09;;;;;;;;;23.50;20.00;;;;;1.71;63.44;102196.28;2018039;28;2831591;-71
2024/01/21 04:53:22;;;;;;;;;19.67;17.83;;;;;1.71;63.32;102193.69;2013352;28;2839892;-71
2024/01/21 04:54:34;;;;;;;;;24.33;20.00;;;;;1.72;63.66;102213.59;1989097;28;2837861;-71
2024/01/21 04:55:45;;;;;;;;;30.33;23.00;;;;;1.73;63.20;102209.31;2006182;28;3588780;-71
2024/01/21 04:56:57;;;;;;;;;24.00;23.80;;;;;1.73;62.94;102199.78;2033084;28;1843000;-71
2024/01/21 04:58:08;;;;;;;;;26.00;17.00;;;;;1.75;63.11;102213.69;2007512;28;2836025;-71
2024/01/21 04:59:19;;;;;;;;;21.00;17.00;;;;;1.78;62.77;102228.44;2000994;28;2818972;-71
2024/01/21 05:00:31;;;;;;;;;30.67;26.67;;;;;1.78;62.68;102216.34;2002959;28;3587735;-71
2024/01/21 05:01:42;;;;;;;;;28.67;21.67;;;;;1.82;62.74;102206.06;2025007;28;2836777;-71
2024/01/21 05:02:56;;;;;;;;;25.00;20.67;;;;;1.84;62.78;102196.63;2034371;28;1844140;-71
2024/01/21 05:04:06;;;;;;;;;22.50;20.00;;;;;1.85;62.85;102203.56;1983057;28;2819043;-71
2024/01/21 05:05:18;;;;;;;;;22.33;19.33;;;;;1.86;63.02;102197.53;1999533;28;2834604;-71
2024/01/21 05:06:32;;;;;;;;;21.57;20.29;;;;;1.86;62.10;102193.22;2035632;28;1846155;-71
2024/01/21 05:07:43;;;;;;;;;22.50;19.50;;;;;1.88;62.27;102177.69;2014394;28;2826328;-71
2024/01/21 05:08:54;;;;;;;;;20.00;16.00;;;;;1.89;62.21;102192.44;2008497;28;2823152;-71
2024/01/21 05:10:05;;;;;;;;;17.00;16.00;;;;;1.90;62.23;102182.09;2005477;28;2812786;-71
2024/01/21 05:11:17;;;;;;;;;22.00;17.33;;;;;1.91;62.16;102178.69;1982774;28;2829507;-71
2024/01/21 05:12:30;;;;;;;;;29.00;19.00;;;;;1.94;62.11;102172.69;2024374;28;2861765;-71
2024/01/21 05:13:43;;;;;;;;;17.00;16.50;;;;;1.95;61.94;102169.25;2005365;28;2837749;-71
2024/01/21 05:14:55;;;;;;;;;27.00;22.00;;;;;1.98;61.95;102163.25;1985123;28;2836748;-71
2024/01/21 05:16:06;;;;;;;;;21.50;16.00;;;;;1.99;61.37;102173.69;1984849;28;2819067;-71
2024/01/21 05:17:17;;;;;;;;;15.50;15.50;;;;;2.02;61.03;102172.91;2019741;28;2809666;-71
2024/01/21 05:18:28;;;;;;;;;19.00;16.50;;;;;2.04;62.14;102178.13;1999849;28;2815286;-71
2024/01/21 05:19:39;;;;;;;;;22.00;15.00;;;;;2.06;61.73;102176.44;2025839;28;2810691;-71
2024/01/21 05:20:50;;;;;;;;;21.50;16.00;;;;;2.06;61.43;102174.72;2000517;28;2843976;-71
2024/01/21 05:22:02;;;;;;;;;22.75;19.00;;;;;2.09;60.36;102173.94;2010890;28;1835720;-71
2024/01/21 05:23:16;;;;;;;;;23.00;18.50;;;;;2.10;61.17;102171.38;2014797;28;1835741;-71